createdAt,value
2023-03-16T00:02:14.848Z,7.75
2023-03-16T00:04:41.216Z,9.10
2023-03-16T00:07:10.404Z,6.18
2023-03-16T00:09:41.052Z,5.85
2023-03-16T00:12:15.632Z,7.03
2023-03-16T00:14:43.984Z,6.40
2023-03-16T00:17:18.851Z,7.60
2023-03-16T00:19:55.069Z,9.02
2023-03-16T00:22:24.086Z,9.10
2023-03-16T00:24:50.452Z,6.57
2023-03-16T00:27:17.247Z,9.50
2023-03-16T00:29:46.948Z,6.70
2023-03-16T00:32:18.142Z,10.80
2023-03-16T00:34:46.213Z,7.55
2023-03-16T00:37:15.328Z,7.30
2023-03-16T00:39:42.753Z,8.00
2023-03-16T00:42:10.271Z,7.97
2023-03-16T00:44:37.108Z,9.13
2023-03-16T00:47:04.200Z,7.78
2023-03-16T00:49:34.710Z,8.90
2023-03-16T00:52:06.659Z,7.88
2023-03-16T00:54:33.104Z,9.15
2023-03-16T00:57:00.566Z,8.40
2023-03-16T00:59:27.567Z,8.60
2023-03-16T01:01:54.513Z,9.83
2023-03-16T01:04:21.464Z,7.97
2023-03-16T01:06:49.014Z,7.55
2023-03-16T01:09:15.563Z,7.85
2023-03-16T01:11:45.247Z,8.85
2023-03-16T01:14:11.732Z,9.70
2023-03-16T01:16:38.153Z,10.48
2023-03-16T01:19:04.602Z,9.60
2023-03-16T01:21:33.631Z,7.88
2023-03-16T01:24:00.095Z,8.82
2023-03-16T01:26:26.683Z,12.40
2023-03-16T01:28:54.446Z,8.95
2023-03-16T01:31:21.340Z,7.18
2023-03-16T01:33:47.961Z,7.22
2023-03-16T01:36:17.193Z,7.72
2023-03-16T01:38:43.834Z,6.07
2023-03-16T01:41:11.324Z,9.25
2023-03-16T01:43:39.332Z,8.27
2023-03-16T01:46:05.795Z,8.07
2023-03-16T01:48:40.197Z,8.50
2023-03-16T01:51:17.170Z,8.07
2023-03-16T01:53:46.459Z,11.15
2023-03-16T01:56:18.427Z,8.27
2023-03-16T01:58:45.925Z,9.10
2023-03-16T02:01:14.107Z,9.38
2023-03-16T02:03:42.970Z,9.20
2023-03-16T02:06:11.654Z,8.57
2023-03-16T02:08:39.568Z,10.55
2023-03-16T02:11:08.527Z,9.63
2023-03-16T02:13:36.719Z,8.95
2023-03-16T02:16:07.133Z,9.33
2023-03-16T02:18:34.132Z,11.85
2023-03-16T02:21:33.043Z,9.55
2023-03-16T02:24:02.390Z,11.10
2023-03-16T02:26:50.604Z,10.32
2023-03-16T02:29:41.700Z,14.97
2023-03-16T02:32:08.992Z,11.52
2023-03-16T02:34:35.888Z,11.30
2023-03-16T02:37:04.152Z,14.07
2023-03-16T02:39:30.503Z,16.40
2023-03-16T02:41:57.131Z,15.87
2023-03-16T02:44:28.853Z,15.27
2023-03-16T02:46:59.914Z,14.88
2023-03-16T02:49:38.084Z,14.68
2023-03-16T02:52:06.070Z,18.17
2023-03-16T02:54:32.723Z,18.70
2023-03-16T02:56:59.091Z,16.85
2023-03-16T02:59:25.525Z,16.38
2023-03-16T03:01:51.890Z,16.30
2023-03-16T03:04:18.401Z,16.00
2023-03-16T03:06:45.217Z,16.43
2023-03-16T03:09:11.799Z,19.10
2023-03-16T03:11:38.725Z,17.30
2023-03-16T03:14:05.915Z,20.35
2023-03-16T03:16:32.355Z,18.45
2023-03-16T03:18:59.099Z,21.07
2023-03-16T03:21:25.618Z,19.27
2023-03-16T03:23:52.782Z,20.00
2023-03-16T03:26:19.969Z,25.13
2023-03-16T03:28:46.654Z,20.17
2023-03-16T03:31:15.747Z,20.07
2023-03-16T03:33:42.170Z,20.75
2023-03-16T03:36:08.699Z,24.20
2023-03-16T03:38:35.469Z,21.35
2023-03-16T03:41:02.036Z,21.25
2023-03-16T03:43:28.461Z,22.40
2023-03-16T03:45:59.323Z,23.42
2023-03-16T03:48:25.832Z,22.98
2023-03-16T03:50:52.450Z,20.27
2023-03-16T03:53:19.566Z,24.73
2023-03-16T03:55:45.922Z,20.50
2023-03-16T03:58:12.271Z,22.35
2023-03-16T04:00:39.491Z,23.17
2023-03-16T04:03:06.474Z,23.88
2023-03-16T04:05:32.984Z,23.92
2023-03-16T04:07:59.393Z,23.90
2023-03-16T04:10:30.185Z,21.50
2023-03-16T04:12:58.053Z,23.27
2023-03-16T04:15:24.558Z,19.88
2023-03-16T04:17:52.609Z,21.90
2023-03-16T04:20:20.027Z,21.73
2023-03-16T04:22:47.440Z,19.95
2023-03-16T04:25:15.963Z,23.27
2023-03-16T04:27:42.816Z,21.90
2023-03-16T04:30:12.829Z,19.45
2023-03-16T04:32:40.191Z,22.20
2023-03-16T04:35:06.992Z,22.17
2023-03-16T04:37:34.503Z,20.60
2023-03-16T04:40:01.048Z,16.20
2023-03-16T04:42:27.409Z,18.80
2023-03-16T04:44:53.737Z,18.90
2023-03-16T04:47:20.112Z,18.73
2023-03-16T04:49:46.590Z,19.80
2023-03-16T04:52:13.026Z,16.77
2023-03-16T04:54:39.388Z,19.40
2023-03-16T04:57:05.871Z,18.00
2023-03-16T04:59:32.337Z,15.55
2023-03-16T05:01:58.749Z,15.43
2023-03-16T05:04:25.184Z,16.17
2023-03-16T05:06:51.659Z,15.77
2023-03-16T05:09:18.068Z,15.03
2023-03-16T05:11:44.427Z,15.48
2023-03-16T05:14:10.796Z,15.32
2023-03-16T05:16:37.166Z,14.38
2023-03-16T05:19:04.265Z,13.05
2023-03-16T05:21:32.051Z,12.00
2023-03-16T05:23:58.423Z,15.63
2023-03-16T05:26:27.774Z,13.35
2023-03-16T05:28:54.102Z,12.48
2023-03-16T05:31:20.484Z,12.73
2023-03-16T05:33:46.870Z,12.50
2023-03-16T05:36:13.656Z,12.35
2023-03-16T05:38:40.090Z,12.95
2023-03-16T05:41:06.531Z,12.75
2023-03-16T05:43:34.292Z,10.32
2023-03-16T05:46:00.638Z,13.17
2023-03-16T05:48:27.396Z,12.50
2023-03-16T05:50:53.844Z,13.55
2023-03-16T05:53:20.595Z,15.38
2023-03-16T05:55:54.619Z,12.05
2023-03-16T05:58:21.261Z,11.43
2023-03-16T06:00:47.621Z,12.60
2023-03-16T06:03:14.050Z,13.18
2023-03-16T06:05:41.594Z,10.43
2023-03-16T06:08:09.114Z,11.93
2023-03-16T06:10:36.247Z,12.60
2023-03-16T06:13:02.667Z,11.30
2023-03-16T06:15:30.515Z,12.80
2023-03-16T06:17:56.935Z,12.30
2023-03-16T06:20:23.276Z,11.77
2023-03-16T06:22:49.707Z,11.27
2023-03-16T06:25:16.439Z,11.00
2023-03-16T06:27:43.372Z,9.38
2023-03-16T06:30:12.009Z,8.95
2023-03-16T06:32:41.820Z,9.38
2023-03-16T06:35:09.517Z,9.90
2023-03-16T06:37:35.900Z,10.20
2023-03-16T06:40:02.256Z,12.25
2023-03-16T06:42:28.619Z,11.07
2023-03-16T06:44:55.028Z,9.70
2023-03-16T06:47:21.539Z,9.73
2023-03-16T06:49:47.984Z,9.35
2023-03-16T06:52:14.593Z,8.30
2023-03-16T06:54:41.493Z,9.00
2023-03-16T06:57:08.655Z,9.30
2023-03-16T06:59:35.113Z,9.30
2023-03-16T07:02:01.904Z,10.88
2023-03-16T07:04:28.589Z,8.30
2023-03-16T07:06:55.007Z,6.85
2023-03-16T07:09:21.946Z,8.65
2023-03-16T07:11:48.304Z,8.40
2023-03-16T07:14:14.649Z,9.10
2023-03-16T07:16:41.112Z,7.50
2023-03-16T07:19:07.477Z,7.82
2023-03-16T07:21:39.223Z,8.38
2023-03-16T07:24:06.425Z,9.27
2023-03-16T07:26:32.849Z,7.57
2023-03-16T07:28:59.615Z,8.52
2023-03-16T07:31:26.140Z,10.20
2023-03-16T07:33:52.522Z,9.65
2023-03-16T07:36:18.956Z,10.00
2023-03-16T07:38:45.370Z,7.63
2023-03-16T07:41:11.701Z,7.57
2023-03-16T07:43:38.067Z,9.10
2023-03-16T07:46:05.433Z,8.23
2023-03-16T07:48:32.567Z,6.17
2023-03-16T07:50:58.934Z,5.70
2023-03-16T07:53:25.443Z,8.35
2023-03-16T07:55:51.807Z,6.00
2023-03-16T07:58:18.300Z,5.90
2023-03-16T08:00:44.639Z,6.53
2023-03-16T08:03:11.076Z,9.95
2023-03-16T08:05:37.510Z,7.38
2023-03-16T08:08:04.004Z,7.93
2023-03-16T08:10:31.874Z,8.10
2023-03-16T08:12:58.558Z,5.90
2023-03-16T08:15:24.976Z,7.18
2023-03-16T08:17:52.390Z,6.78
2023-03-16T08:20:19.012Z,6.55
2023-03-16T08:22:46.540Z,5.55
2023-03-16T08:25:14.029Z,6.03
2023-03-16T08:27:41.767Z,5.65
2023-03-16T08:30:11.375Z,5.53
2023-03-16T08:32:41.434Z,6.03
2023-03-16T08:35:15.365Z,5.68
2023-03-16T08:37:42.134Z,6.40
2023-03-16T08:40:10.763Z,6.82
2023-03-16T08:42:39.651Z,5.97
2023-03-16T08:45:13.610Z,6.38
2023-03-16T08:47:40.645Z,5.85
2023-03-16T08:50:08.660Z,6.60
2023-03-16T08:52:36.399Z,10.32
2023-03-16T08:55:05.429Z,7.70
2023-03-16T08:57:33.337Z,7.32
2023-03-16T09:00:00.232Z,8.75
2023-03-16T09:02:27.277Z,7.17
2023-03-16T09:04:53.700Z,8.25
2023-03-16T09:07:20.416Z,8.32
2023-03-16T09:09:46.788Z,7.35
2023-03-16T09:12:13.681Z,9.95
2023-03-16T09:14:40.076Z,9.97
2023-03-16T09:17:11.553Z,10.48
2023-03-16T09:19:50.526Z,9.13
2023-03-16T09:22:19.806Z,9.35
2023-03-16T09:24:46.752Z,9.18
2023-03-16T09:27:13.213Z,9.63
2023-03-16T09:29:41.001Z,8.88
2023-03-16T09:32:08.415Z,8.95
2023-03-16T09:34:34.792Z,9.02
2023-03-16T09:37:01.495Z,12.32
2023-03-16T09:39:27.946Z,9.33
2023-03-16T09:42:04.388Z,10.13
2023-03-16T09:44:43.232Z,10.05
2023-03-16T09:47:12.056Z,9.07
2023-03-16T09:49:44.741Z,10.55
2023-03-16T09:52:24.039Z,11.67
2023-03-16T09:55:07.598Z,9.23
2023-03-16T09:57:44.513Z,9.55
2023-03-16T10:00:19.302Z,10.02
2023-03-16T10:02:58.835Z,10.70
2023-03-16T10:05:27.798Z,9.57
2023-03-16T10:08:12.694Z,10.82
2023-03-16T10:10:57.709Z,10.85
2023-03-16T10:13:45.655Z,10.48
2023-03-16T10:16:23.249Z,11.13
2023-03-16T10:18:57.219Z,9.90
2023-03-16T10:21:24.503Z,12.13
2023-03-16T10:23:54.169Z,13.30
2023-03-16T10:26:31.539Z,11.52
2023-03-16T10:29:01.085Z,9.65
2023-03-16T10:31:28.269Z,12.03
2023-03-16T10:34:04.955Z,13.23
2023-03-16T10:36:35.316Z,11.82
2023-03-16T10:39:08.438Z,12.38
2023-03-16T10:41:45.875Z,9.98
2023-03-16T10:44:21.712Z,10.90
2023-03-16T10:46:58.247Z,11.00
2023-03-16T10:49:36.039Z,8.77
2023-03-16T10:52:14.081Z,9.40
2023-03-16T10:54:47.762Z,10.05
2023-03-16T10:57:26.322Z,9.20
2023-03-16T10:59:56.680Z,10.40
2023-03-16T11:02:31.750Z,13.02
2023-03-16T11:04:58.418Z,9.52
2023-03-16T11:07:25.488Z,11.15
2023-03-16T11:09:52.555Z,9.30
2023-03-16T11:12:28.719Z,9.73
2023-03-16T11:14:56.270Z,10.68
2023-03-16T11:17:33.037Z,9.57
2023-03-16T11:20:12.240Z,8.95
2023-03-16T11:22:40.670Z,10.23
2023-03-16T11:25:20.319Z,12.02
2023-03-16T11:28:03.978Z,11.25
2023-03-16T11:30:48.336Z,10.80
2023-03-16T11:33:15.409Z,8.30
2023-03-16T11:35:58.691Z,12.00
2023-03-16T11:38:33.761Z,9.43
2023-03-16T11:41:09.158Z,8.55
2023-03-16T11:43:54.299Z,9.40
2023-03-16T11:46:23.918Z,10.45
2023-03-16T11:49:07.000Z,11.37
2023-03-16T11:52:05.123Z,9.65
2023-03-16T11:55:03.673Z,10.98
2023-03-16T11:58:03.248Z,9.98
2023-03-16T12:00:45.970Z,9.55
2023-03-16T12:03:30.906Z,10.73
2023-03-16T12:06:13.758Z,8.90
2023-03-16T12:09:12.359Z,7.88
2023-03-16T12:11:53.498Z,10.70
2023-03-16T12:14:33.818Z,10.20
2023-03-16T12:17:20.806Z,8.30
2023-03-16T12:19:56.388Z,9.80
2023-03-16T12:22:49.897Z,13.77
2023-03-16T12:25:22.146Z,8.68
2023-03-16T12:27:52.739Z,13.35
2023-03-16T12:30:38.449Z,7.83
2023-03-16T12:33:22.884Z,9.23
2023-03-16T12:36:00.105Z,8.57
2023-03-16T12:38:26.491Z,9.35
2023-03-16T12:41:04.961Z,8.85
2023-03-16T12:43:42.619Z,9.33
2023-03-16T12:46:19.554Z,7.20
2023-03-16T12:48:50.941Z,7.25
2023-03-16T12:51:17.354Z,7.88
2023-03-16T12:53:54.621Z,8.80
2023-03-16T12:56:32.844Z,7.77
2023-03-16T12:59:01.680Z,7.35
2023-03-16T13:01:31.246Z,7.55
2023-03-16T13:04:07.048Z,7.65
2023-03-16T13:06:36.565Z,7.60
2023-03-16T13:09:07.119Z,9.47
2023-03-16T13:11:50.419Z,6.47
2023-03-16T13:14:33.702Z,6.95
2023-03-16T13:17:22.933Z,7.15
2023-03-16T13:20:20.946Z,5.95
2023-03-16T13:23:18.924Z,5.23
2023-03-16T13:26:00.371Z,5.68
2023-03-16T13:28:31.432Z,8.35
2023-03-16T13:30:58.022Z,4.85
2023-03-16T13:33:27.956Z,6.43
2023-03-16T13:35:57.358Z,6.73
2023-03-16T13:38:31.361Z,6.25
2023-03-16T13:41:09.189Z,6.80
2023-03-16T13:43:39.648Z,7.47
2023-03-16T13:46:16.989Z,6.63
2023-03-16T13:48:43.562Z,7.40
2023-03-16T13:51:22.529Z,5.60
2023-03-16T13:53:50.225Z,5.43
2023-03-16T13:56:21.460Z,5.30
2023-03-16T13:58:51.405Z,5.88
2023-03-16T14:01:32.001Z,7.17
2023-03-16T14:04:08.261Z,5.47
2023-03-16T14:06:35.808Z,5.88
2023-03-16T14:09:05.981Z,5.82
2023-03-16T14:11:32.330Z,6.65
2023-03-16T14:14:00.431Z,6.07
2023-03-16T14:16:29.628Z,6.53
2023-03-16T14:19:05.996Z,7.95
2023-03-16T14:21:34.502Z,6.25
2023-03-16T14:24:07.049Z,5.38
2023-03-16T14:26:41.859Z,5.90
2023-03-16T14:29:21.338Z,5.57
2023-03-16T14:31:48.544Z,5.43
2023-03-16T14:34:39.433Z,6.13
2023-03-16T14:37:06.752Z,5.20
2023-03-16T14:39:33.424Z,5.03
2023-03-16T14:42:03.060Z,6.85
2023-03-16T14:44:32.542Z,3.65
2023-03-16T14:47:00.198Z,3.67
2023-03-16T14:49:33.167Z,4.00
2023-03-16T14:52:04.606Z,4.13
2023-03-16T14:54:31.112Z,5.45
2023-03-16T14:57:05.408Z,4.15
2023-03-16T14:59:32.958Z,3.78
2023-03-16T15:02:00.987Z,4.68
2023-03-16T15:04:32.297Z,5.47
2023-03-16T15:06:59.351Z,4.22
2023-03-16T15:09:34.239Z,3.08
2023-03-16T15:12:00.666Z,4.00
2023-03-16T15:14:45.827Z,4.68
2023-03-16T15:17:12.244Z,4.13
2023-03-16T15:19:38.599Z,3.97
2023-03-16T15:22:05.556Z,3.03
2023-03-16T15:24:33.264Z,3.95
2023-03-16T15:27:00.601Z,4.53
2023-03-16T15:29:27.120Z,4.13
2023-03-16T15:31:54.584Z,3.78
2023-03-16T15:34:22.420Z,4.13
2023-03-16T15:36:48.940Z,3.30
2023-03-16T15:39:22.796Z,3.85
2023-03-16T15:41:49.133Z,3.73
2023-03-16T15:44:15.862Z,4.43
2023-03-16T15:46:42.276Z,4.63
2023-03-16T15:49:08.820Z,5.10
2023-03-16T15:51:35.373Z,4.55
2023-03-16T15:54:04.772Z,5.53
2023-03-16T15:56:41.205Z,6.18
2023-03-16T15:59:18.439Z,4.95
2023-03-16T16:01:47.710Z,5.32
2023-03-16T16:04:17.578Z,4.70
2023-03-16T16:06:44.299Z,4.80
2023-03-16T16:09:10.906Z,6.18
2023-03-16T16:11:38.243Z,6.10
2023-03-16T16:14:05.157Z,5.13
2023-03-16T16:16:33.108Z,6.18
2023-03-16T16:19:00.313Z,5.53
2023-03-16T16:21:30.847Z,4.75
2023-03-16T16:23:57.651Z,5.20
2023-03-16T16:26:48.338Z,6.60
2023-03-16T16:29:24.965Z,5.32
2023-03-16T16:31:52.060Z,7.00
2023-03-16T16:34:21.322Z,5.95
2023-03-16T16:36:48.584Z,7.10
2023-03-16T16:39:14.976Z,6.72
2023-03-16T16:41:42.629Z,7.55
2023-03-16T16:44:18.659Z,6.03
2023-03-16T16:46:47.965Z,5.43
2023-03-16T16:49:24.860Z,5.75
2023-03-16T16:51:52.499Z,4.38
2023-03-16T16:54:20.035Z,5.57
2023-03-16T16:56:47.279Z,5.40
2023-03-16T16:59:18.133Z,7.13
2023-03-16T17:01:46.711Z,8.82
2023-03-16T17:04:19.192Z,5.20
2023-03-16T17:06:46.711Z,5.43
2023-03-16T17:09:14.250Z,6.27
2023-03-16T17:11:42.181Z,7.72
2023-03-16T17:14:09.307Z,6.25
2023-03-16T17:16:39.471Z,5.47
2023-03-16T17:19:07.402Z,5.88
2023-03-16T17:21:33.873Z,6.30
2023-03-16T17:24:00.421Z,5.93
2023-03-16T17:26:36.872Z,4.85
2023-03-16T17:29:10.854Z,5.70
2023-03-16T17:31:42.032Z,4.75
2023-03-16T17:34:17.311Z,5.97
2023-03-16T17:36:44.490Z,5.50
2023-03-16T17:39:27.557Z,6.60
2023-03-16T17:42:04.186Z,7.60
2023-03-16T17:44:33.939Z,5.90
2023-03-16T17:47:00.444Z,7.33
2023-03-16T17:49:28.459Z,5.72
2023-03-16T17:51:55.609Z,5.65
2023-03-16T17:54:22.013Z,6.25
2023-03-16T17:56:51.772Z,5.35
2023-03-16T17:59:21.116Z,5.43
2023-03-16T18:01:48.094Z,9.45
2023-03-16T18:04:23.260Z,8.18
2023-03-16T18:06:51.118Z,7.40
2023-03-16T18:09:19.315Z,5.30
2023-03-16T18:11:48.439Z,7.50
2023-03-16T18:14:24.061Z,7.40
2023-03-16T18:16:50.747Z,5.70
2023-03-16T18:19:28.587Z,7.18
2023-03-16T18:21:55.027Z,7.82
2023-03-16T18:24:25.441Z,4.97
2023-03-16T18:26:52.376Z,4.57
2023-03-16T18:29:19.890Z,9.10
2023-03-16T18:31:47.618Z,8.40
2023-03-16T18:34:23.814Z,7.05
2023-03-16T18:36:52.910Z,5.43
2023-03-16T18:39:22.018Z,5.82
2023-03-16T18:41:48.403Z,3.95
2023-03-16T18:44:20.239Z,4.90
2023-03-16T18:46:48.216Z,4.38
2023-03-16T18:49:26.722Z,7.00
2023-03-16T18:51:54.499Z,4.18
2023-03-16T18:54:26.513Z,4.78
2023-03-16T18:56:53.893Z,6.78
2023-03-16T18:59:21.158Z,5.75
2023-03-16T19:01:47.973Z,5.10
2023-03-16T19:04:23.812Z,6.50
2023-03-16T19:06:53.356Z,7.32
2023-03-16T19:09:31.497Z,6.88
2023-03-16T19:11:58.640Z,5.78
2023-03-16T19:14:28.225Z,5.87
2023-03-16T19:16:55.534Z,5.47
2023-03-16T19:19:24.174Z,8.73
2023-03-16T19:21:53.708Z,5.13
2023-03-16T19:24:27.507Z,7.10
2023-03-16T19:26:54.471Z,6.70
2023-03-16T19:29:33.142Z,5.80
2023-03-16T19:32:00.782Z,6.38
2023-03-16T19:34:27.972Z,4.85
2023-03-16T19:36:54.440Z,5.68
2023-03-16T19:39:21.478Z,6.93
2023-03-16T19:41:54.161Z,7.72
2023-03-16T19:44:22.622Z,6.78
2023-03-16T19:46:49.722Z,6.50
2023-03-16T19:49:24.742Z,6.25
2023-03-16T19:51:53.189Z,5.33
2023-03-16T19:54:26.821Z,6.10
2023-03-16T19:56:54.750Z,6.72
2023-03-16T19:59:21.339Z,6.88
2023-03-16T20:01:48.002Z,5.32
2023-03-16T20:04:25.190Z,5.77
2023-03-16T20:06:51.615Z,5.13
2023-03-16T20:09:18.298Z,5.57
2023-03-16T20:11:45.926Z,4.85
2023-03-16T20:14:23.645Z,5.85
2023-03-16T20:16:50.139Z,5.17
2023-03-16T20:19:16.607Z,6.10
2023-03-16T20:21:45.886Z,4.85
2023-03-16T20:24:17.933Z,5.80
2023-03-16T20:26:46.282Z,5.63
2023-03-16T20:29:30.379Z,5.63
2023-03-16T20:31:57.169Z,5.53
2023-03-16T20:34:27.362Z,5.45
2023-03-16T20:36:54.052Z,6.35
2023-03-16T20:39:20.929Z,4.95
2023-03-16T20:41:47.913Z,5.80
2023-03-16T20:44:17.943Z,6.70
2023-03-16T20:46:44.871Z,6.40
2023-03-16T20:49:28.619Z,5.40
2023-03-16T20:51:55.432Z,6.70
2023-03-16T20:54:22.798Z,5.17
2023-03-16T20:56:49.359Z,7.05
2023-03-16T20:59:19.989Z,5.43
2023-03-16T21:01:47.328Z,7.22
2023-03-16T21:04:27.537Z,4.43
2023-03-16T21:06:56.644Z,5.67
2023-03-16T21:09:23.008Z,5.43
2023-03-16T21:11:49.557Z,6.80
2023-03-16T21:14:23.019Z,6.40
2023-03-16T21:16:50.513Z,6.22
2023-03-16T21:19:22.986Z,6.37
2023-03-16T21:21:49.810Z,7.22
2023-03-16T21:24:16.430Z,7.15
2023-03-16T21:26:44.593Z,10.40
2023-03-16T21:29:15.881Z,8.13
2023-03-16T21:31:42.726Z,8.97
2023-03-16T21:34:33.571Z,7.60
2023-03-16T21:37:00.003Z,8.23
2023-03-16T21:39:26.343Z,6.43
2023-03-16T21:41:53.507Z,5.72
2023-03-16T21:44:20.613Z,8.43
2023-03-16T21:46:49.627Z,6.95
2023-03-16T21:49:16.382Z,7.13
2023-03-16T21:51:43.364Z,8.05
2023-03-16T21:54:14.595Z,8.25
2023-03-16T21:56:41.855Z,11.43
2023-03-16T21:59:09.098Z,11.60
2023-03-16T22:01:40.875Z,12.00
2023-03-16T22:04:17.128Z,9.70
2023-03-16T22:06:44.523Z,8.00
2023-03-16T22:09:19.524Z,8.60
2023-03-16T22:11:46.500Z,9.27
2023-03-16T22:14:12.864Z,7.90
2023-03-16T22:16:40.125Z,7.95
2023-03-16T22:19:11.980Z,8.93
2023-03-16T22:21:41.846Z,8.50
2023-03-16T22:24:17.984Z,9.20
2023-03-16T22:26:46.167Z,7.30
2023-03-16T22:29:30.141Z,12.52
2023-03-16T22:32:04.274Z,11.05
2023-03-16T22:34:56.810Z,10.20
2023-03-16T22:37:26.276Z,7.30
2023-03-16T22:39:53.550Z,8.93
2023-03-16T22:42:33.522Z,7.18
2023-03-16T22:45:00.741Z,6.78
2023-03-16T22:47:32.391Z,7.20
2023-03-16T22:49:59.150Z,7.55
2023-03-16T22:52:32.575Z,7.90
2023-03-16T22:55:01.592Z,6.90
2023-03-16T22:57:29.095Z,7.53
2023-03-16T22:59:55.704Z,6.77
2023-03-16T23:02:25.447Z,7.47
2023-03-16T23:04:52.009Z,7.15
2023-03-16T23:07:19.615Z,7.47
2023-03-16T23:09:46.615Z,8.20
2023-03-16T23:12:21.812Z,6.00
2023-03-16T23:14:48.592Z,8.95
2023-03-16T23:17:22.070Z,6.43
2023-03-16T23:19:48.728Z,6.68
2023-03-16T23:22:15.370Z,6.97
2023-03-16T23:24:42.506Z,6.40
2023-03-16T23:27:21.274Z,6.80
2023-03-16T23:29:48.125Z,8.80
2023-03-16T23:32:16.768Z,5.93
2023-03-16T23:34:43.137Z,7.00
2023-03-16T23:37:09.532Z,6.40
2023-03-16T23:39:36.370Z,6.53
2023-03-16T23:42:03.817Z,6.85
2023-03-16T23:44:30.592Z,9.15
2023-03-16T23:46:58.501Z,5.50
2023-03-16T23:49:32.442Z,7.80
2023-03-16T23:52:00.598Z,8.85
2023-03-16T23:54:30.412Z,6.90
2023-03-16T23:56:57.210Z,6.28
2023-03-16T23:59:23.814Z,7.60
